createdAt,value
2022-10-10T00:01:22.205Z,8.90
2022-10-10T00:04:10.588Z,7.67
2022-10-10T00:07:00.343Z,6.83
2022-10-10T00:09:48.928Z,7.10
2022-10-10T00:12:37.379Z,7.53
2022-10-10T00:15:26.212Z,7.03
2022-10-10T00:18:14.636Z,7.30
2022-10-10T00:21:03.171Z,7.10
2022-10-10T00:23:53.192Z,7.90
2022-10-10T00:26:41.575Z,8.17
2022-10-10T00:29:30.030Z,7.23
2022-10-10T00:32:18.479Z,7.73
2022-10-10T00:35:07.898Z,7.57
2022-10-10T00:37:56.375Z,7.40
2022-10-10T00:40:50.934Z,7.40
2022-10-10T00:43:39.505Z,8.33
2022-10-10T00:46:27.903Z,7.40
2022-10-10T00:49:19.248Z,7.40
2022-10-10T00:52:09.630Z,8.00
2022-10-10T00:54:58.063Z,7.83
2022-10-10T00:57:47.927Z,7.63
2022-10-10T01:00:36.382Z,6.80
2022-10-10T01:03:25.105Z,7.50
2022-10-10T01:06:13.573Z,7.20
2022-10-10T01:09:02.142Z,7.27
2022-10-10T01:11:53.415Z,7.53
2022-10-10T01:14:47.611Z,7.23
2022-10-10T01:17:40.279Z,7.37
2022-10-10T01:21:00.518Z,7.13
2022-10-10T01:24:15.508Z,6.80
2022-10-10T01:27:17.686Z,7.53
2022-10-10T01:30:09.648Z,7.70
2022-10-10T01:33:06.236Z,7.80
2022-10-10T01:35:56.949Z,8.10
2022-10-10T01:38:50.660Z,7.70
2022-10-10T01:41:43.224Z,7.20
2022-10-10T01:44:31.640Z,7.83
2022-10-10T01:47:22.403Z,8.30
2022-10-10T01:50:14.276Z,7.67
2022-10-10T01:53:10.263Z,7.93
2022-10-10T01:56:08.291Z,7.07
2022-10-10T01:59:08.336Z,6.97
2022-10-10T02:01:59.291Z,7.17
2022-10-10T02:04:50.900Z,7.60
2022-10-10T02:07:44.276Z,7.33
2022-10-10T02:10:35.943Z,8.00
2022-10-10T02:13:28.484Z,7.37
2022-10-10T02:16:20.009Z,7.90
2022-10-10T02:19:10.130Z,6.33
2022-10-10T02:22:00.550Z,6.63
2022-10-10T02:24:49.019Z,7.67
2022-10-10T02:27:42.879Z,7.33
2022-10-10T02:30:31.793Z,6.90
2022-10-10T02:33:23.978Z,6.90
2022-10-10T02:36:12.990Z,7.00
2022-10-10T02:39:03.331Z,8.43
2022-10-10T02:41:52.420Z,7.93
2022-10-10T02:44:40.938Z,6.90
2022-10-10T02:47:29.368Z,7.57
2022-10-10T02:50:17.939Z,8.10
2022-10-10T02:53:06.391Z,7.47
2022-10-10T02:55:56.175Z,7.37
2022-10-10T02:58:44.627Z,7.20
2022-10-10T03:01:33.053Z,7.63
2022-10-10T03:04:21.485Z,7.60
2022-10-10T03:07:09.907Z,7.13
2022-10-10T03:09:58.336Z,7.43
2022-10-10T03:12:48.358Z,6.53
2022-10-10T03:15:36.967Z,7.40
2022-10-10T03:18:25.596Z,7.93
2022-10-10T03:21:14.071Z,7.20
2022-10-10T03:24:02.511Z,6.57
2022-10-10T03:26:50.912Z,6.70
2022-10-10T03:29:40.668Z,8.10
2022-10-10T03:32:29.139Z,7.63
2022-10-10T03:35:17.602Z,6.70
2022-10-10T03:38:06.301Z,7.43
2022-10-10T03:40:54.737Z,8.60
2022-10-10T03:43:43.193Z,7.53
2022-10-10T03:46:32.998Z,6.93
2022-10-10T03:49:21.451Z,7.80
2022-10-10T03:52:09.897Z,7.50
2022-10-10T03:54:58.327Z,8.13
2022-10-10T03:57:46.779Z,7.63
2022-10-10T04:00:35.233Z,7.00
2022-10-10T04:03:25.496Z,7.50
2022-10-10T04:06:14.647Z,7.87
2022-10-10T04:09:04.233Z,8.10
2022-10-10T04:11:52.668Z,7.17
2022-10-10T04:14:41.088Z,7.73
2022-10-10T04:17:29.506Z,7.27
2022-10-10T04:20:19.671Z,7.70
2022-10-10T04:23:08.119Z,8.30
2022-10-10T04:25:56.557Z,7.37
2022-10-10T04:28:45.002Z,8.20
2022-10-10T04:31:33.808Z,7.67
2022-10-10T04:34:22.279Z,7.63
2022-10-10T04:37:12.049Z,7.83
2022-10-10T04:40:00.468Z,8.30
2022-10-10T04:42:49.137Z,7.70
2022-10-10T04:45:37.972Z,7.97
2022-10-10T04:48:26.709Z,8.00
2022-10-10T04:51:15.213Z,8.23
2022-10-10T04:54:05.276Z,7.00
2022-10-10T04:56:53.800Z,7.90
2022-10-10T04:59:42.194Z,8.17
2022-10-10T05:02:30.605Z,8.20
2022-10-10T05:05:19.065Z,7.57
2022-10-10T05:08:07.556Z,7.63
2022-10-10T05:10:57.358Z,8.30
2022-10-10T05:13:45.824Z,8.10
2022-10-10T05:16:34.308Z,8.20
2022-10-10T05:19:22.935Z,8.47
2022-10-10T05:22:11.367Z,9.67
2022-10-10T05:24:59.903Z,9.23
2022-10-10T05:27:49.714Z,8.83
2022-10-10T05:30:38.125Z,8.50
2022-10-10T05:33:26.637Z,8.27
2022-10-10T05:36:15.424Z,9.10
2022-10-10T05:39:03.854Z,8.80
2022-10-10T05:41:52.452Z,8.83
2022-10-10T05:44:42.232Z,8.30
2022-10-10T05:47:30.991Z,8.80
2022-10-10T05:50:28.846Z,7.67
2022-10-10T05:53:17.643Z,8.33
2022-10-10T05:56:06.468Z,8.07
2022-10-10T05:58:55.016Z,8.00
2022-10-10T06:01:44.795Z,7.13
2022-10-10T06:04:33.249Z,7.67
2022-10-10T06:07:21.738Z,7.20
2022-10-10T06:10:11.377Z,7.10
2022-10-10T06:12:59.820Z,6.77
2022-10-10T06:15:51.679Z,8.10
2022-10-10T06:18:41.493Z,7.33
2022-10-10T06:21:30.028Z,7.63
2022-10-10T06:24:18.473Z,7.40
2022-10-10T06:27:06.992Z,8.47
2022-10-10T06:29:55.412Z,7.87
2022-10-10T06:32:43.897Z,7.60
2022-10-10T06:35:33.661Z,8.33
2022-10-10T06:38:22.161Z,7.40
2022-10-10T06:41:11.338Z,6.83
2022-10-10T06:43:59.807Z,6.40
2022-10-10T06:46:48.277Z,7.70
2022-10-10T06:49:36.743Z,6.77
2022-10-10T06:52:26.591Z,7.23
2022-10-10T06:55:15.044Z,6.57
2022-10-10T06:58:03.512Z,7.00
2022-10-10T07:00:52.992Z,6.23
2022-10-10T07:03:41.595Z,7.10
2022-10-10T07:06:34.557Z,6.30
2022-10-10T07:09:24.728Z,6.80
2022-10-10T07:12:13.228Z,6.20
2022-10-10T07:15:01.697Z,6.13
2022-10-10T07:17:54.281Z,6.27
2022-10-10T07:20:42.896Z,6.57
2022-10-10T07:23:32.878Z,6.87
2022-10-10T07:26:22.759Z,7.30
2022-10-10T07:29:11.256Z,7.30
2022-10-10T07:31:59.824Z,7.20
2022-10-10T07:34:48.325Z,7.67
2022-10-10T07:37:36.750Z,7.60
2022-10-10T07:40:25.357Z,7.50
2022-10-10T07:43:15.444Z,7.27
2022-10-10T07:46:05.896Z,7.43
2022-10-10T07:48:56.853Z,6.60
2022-10-10T07:51:45.354Z,6.97
2022-10-10T07:54:34.246Z,7.50
2022-10-10T07:57:22.706Z,7.57
2022-10-10T08:00:13.968Z,7.70
2022-10-10T08:03:02.594Z,6.83
2022-10-10T08:05:51.090Z,7.83
2022-10-10T08:08:50.031Z,5.93
2022-10-10T08:11:39.171Z,6.53
2022-10-10T08:14:27.864Z,6.30
2022-10-10T08:17:17.683Z,6.70
2022-10-10T08:20:07.450Z,6.13
2022-10-10T08:22:56.133Z,5.80
2022-10-10T08:25:44.606Z,5.97
2022-10-10T08:28:33.064Z,5.93
2022-10-10T08:31:23.826Z,5.40
2022-10-10T08:34:14.160Z,5.80
2022-10-10T08:37:02.695Z,5.70
2022-10-10T08:39:51.208Z,5.10
2022-10-10T08:42:48.920Z,4.53
2022-10-10T08:45:40.915Z,4.97
2022-10-10T08:48:31.119Z,5.57
2022-10-10T08:51:27.591Z,4.90
2022-10-10T08:54:18.630Z,5.40
2022-10-10T08:57:08.126Z,5.20
2022-10-10T09:00:00.020Z,4.80
2022-10-10T09:02:55.038Z,5.20
2022-10-10T09:05:50.883Z,4.80
2022-10-10T09:08:48.785Z,5.20
2022-10-10T09:11:50.049Z,5.57
2022-10-10T09:14:40.900Z,4.47
2022-10-10T09:17:37.067Z,5.10
2022-10-10T09:20:43.485Z,5.20
2022-10-10T09:23:33.830Z,4.97
2022-10-10T09:26:26.140Z,5.67
2022-10-10T09:29:26.570Z,5.83
2022-10-10T09:32:17.162Z,5.43
2022-10-10T09:35:15.374Z,6.30
2022-10-10T09:38:15.281Z,5.27
2022-10-10T09:41:07.237Z,5.00
2022-10-10T09:43:58.326Z,5.37
2022-10-10T09:46:46.845Z,5.90
2022-10-10T09:49:35.607Z,4.67
2022-10-10T09:52:28.595Z,4.50
2022-10-10T09:55:25.451Z,4.97
2022-10-10T09:58:17.984Z,4.87
2022-10-10T10:01:19.429Z,4.97
2022-10-10T10:04:29.658Z,5.33
2022-10-10T10:07:29.760Z,4.47
2022-10-10T10:10:20.810Z,5.83
2022-10-10T10:13:14.553Z,5.57
2022-10-10T10:16:06.612Z,4.37
2022-10-10T10:18:56.583Z,4.50
2022-10-10T10:21:52.522Z,4.03
2022-10-10T10:24:40.984Z,4.50
2022-10-10T10:27:29.958Z,5.10
2022-10-10T10:30:25.703Z,4.17
2022-10-10T10:33:22.788Z,4.10
2022-10-10T10:36:26.363Z,3.90
2022-10-10T10:39:27.513Z,4.27
2022-10-10T10:42:39.900Z,4.80
2022-10-10T10:45:35.034Z,4.10
2022-10-10T10:48:28.828Z,4.30
2022-10-10T10:51:29.827Z,3.80
2022-10-10T10:54:31.402Z,4.33
2022-10-10T10:57:37.108Z,4.10
2022-10-10T11:01:20.367Z,4.33
2022-10-10T11:05:18.550Z,4.00
2022-10-10T11:07:19.590Z,4.40
2022-10-10T11:10:14.237Z,4.60
2022-10-10T11:13:08.992Z,3.30
2022-10-10T11:16:06.694Z,4.40
2022-10-10T11:19:08.230Z,4.13
2022-10-10T11:22:01.823Z,3.73
2022-10-10T11:24:55.029Z,3.50
2022-10-10T11:27:48.004Z,3.30
2022-10-10T11:30:41.003Z,3.40
2022-10-10T11:33:31.435Z,3.67
2022-10-10T11:36:22.149Z,3.33
2022-10-10T11:39:15.941Z,3.47
2022-10-10T11:42:09.144Z,3.50
2022-10-10T11:45:01.185Z,3.37
2022-10-10T11:47:56.057Z,3.10
2022-10-10T11:50:44.751Z,2.80
2022-10-10T11:53:37.407Z,3.10
2022-10-10T11:56:30.285Z,3.30
2022-10-10T11:59:24.859Z,3.30
2022-10-10T12:02:19.529Z,3.30
2022-10-10T12:05:19.489Z,2.90
2022-10-10T12:08:14.349Z,3.33
2022-10-10T12:11:10.900Z,3.17
2022-10-10T12:14:01.294Z,3.80
2022-10-10T12:16:51.948Z,3.30
2022-10-10T12:19:40.482Z,3.70
2022-10-10T12:22:30.320Z,3.17
2022-10-10T12:25:25.589Z,3.70
2022-10-10T12:28:26.341Z,3.10
2022-10-10T12:31:30.319Z,3.07
2022-10-10T12:34:44.011Z,3.27
2022-10-10T12:37:33.445Z,3.57
2022-10-10T12:40:23.269Z,3.17
2022-10-10T12:43:26.051Z,3.23
2022-10-10T12:46:24.036Z,3.23
2022-10-10T12:49:21.175Z,3.57
2022-10-10T12:52:13.235Z,3.90
2022-10-10T12:55:08.956Z,3.37
2022-10-10T12:57:59.690Z,3.33
2022-10-10T13:00:48.952Z,3.23
2022-10-10T13:03:39.509Z,3.10
2022-10-10T13:06:34.672Z,4.00
2022-10-10T13:09:29.914Z,3.40
2022-10-10T13:12:28.755Z,3.53
2022-10-10T13:15:23.665Z,3.47
2022-10-10T13:18:12.096Z,3.47
2022-10-10T13:21:01.117Z,3.00
2022-10-10T13:27:02.198Z,3.80
2022-10-10T13:29:51.076Z,3.43
2022-10-10T13:32:39.517Z,3.37
2022-10-10T13:35:28.784Z,2.90
2022-10-10T13:38:18.568Z,3.53
2022-10-10T13:41:07.232Z,3.90
2022-10-10T13:43:57.095Z,3.40
2022-10-10T13:46:45.579Z,3.43
2022-10-10T13:49:34.078Z,3.30
2022-10-10T13:52:23.836Z,3.53
2022-10-10T13:55:16.551Z,2.80
2022-10-10T13:58:07.862Z,4.37
2022-10-10T14:01:00.517Z,3.73
2022-10-10T14:03:50.452Z,3.77
2022-10-10T14:06:39.381Z,4.13
2022-10-10T14:09:31.860Z,3.77
2022-10-10T14:12:24.770Z,3.23
2022-10-10T14:15:31.970Z,3.60
2022-10-10T14:18:24.019Z,3.40
2022-10-10T14:21:12.636Z,3.63
2022-10-10T14:24:02.556Z,3.80
2022-10-10T14:26:51.100Z,2.90
2022-10-10T14:29:39.794Z,4.20
2022-10-10T14:32:28.228Z,3.93
2022-10-10T14:35:18.094Z,4.47
2022-10-10T14:38:06.817Z,4.03
2022-10-10T14:40:56.057Z,3.80
2022-10-10T14:43:46.021Z,3.90
2022-10-10T14:46:34.705Z,4.20
2022-10-10T14:49:23.542Z,4.40
2022-10-10T14:52:13.660Z,4.50
2022-10-10T14:55:02.259Z,3.53
2022-10-10T14:57:50.792Z,3.53
2022-10-10T15:00:39.296Z,3.93
2022-10-10T15:03:27.981Z,4.27
2022-10-10T15:06:16.514Z,3.80
2022-10-10T15:09:27.660Z,3.73
2022-10-10T15:12:15.058Z,4.37
2022-10-10T15:15:04.322Z,4.17
2022-10-10T15:17:52.773Z,3.80
2022-10-10T15:20:41.212Z,4.33
2022-10-10T15:23:29.686Z,3.80
2022-10-10T15:26:19.681Z,3.20
2022-10-10T15:29:08.241Z,3.90
2022-10-10T15:31:56.657Z,3.67
2022-10-10T15:34:45.188Z,3.53
2022-10-10T15:37:33.636Z,4.10
2022-10-10T15:40:24.032Z,3.40
2022-10-10T15:43:15.886Z,4.83
2022-10-10T15:46:09.355Z,3.63
2022-10-10T15:49:03.642Z,3.83
2022-10-10T15:51:52.209Z,4.13
2022-10-10T15:54:41.189Z,4.30
2022-10-10T15:57:29.707Z,3.90
2022-10-10T16:00:19.916Z,3.97
2022-10-10T16:03:08.990Z,5.13
2022-10-10T16:05:57.832Z,5.57
2022-10-10T16:08:55.711Z,6.00
2022-10-10T16:11:52.837Z,5.00
2022-10-10T16:14:41.364Z,4.47
2022-10-10T16:17:31.150Z,4.93
2022-10-10T16:20:19.669Z,5.10
2022-10-10T16:23:08.291Z,4.80
2022-10-10T16:26:03.831Z,4.90
2022-10-10T16:28:52.704Z,4.40
2022-10-10T16:31:42.812Z,4.33
2022-10-10T16:34:32.629Z,4.20
2022-10-10T16:37:21.108Z,4.40
2022-10-10T16:40:10.550Z,5.07
2022-10-10T16:42:59.109Z,4.90
2022-10-10T16:45:47.762Z,4.80
2022-10-10T16:48:37.314Z,3.97
2022-10-10T16:51:28.761Z,4.47
2022-10-10T16:54:17.310Z,4.40
2022-10-10T16:57:06.358Z,4.90
2022-10-10T16:59:54.958Z,5.27
2022-10-10T17:02:43.440Z,6.27
2022-10-10T17:05:32.094Z,6.83
2022-10-10T17:08:21.888Z,5.83
2022-10-10T17:11:10.703Z,5.70
2022-10-10T17:13:59.227Z,6.13
2022-10-10T17:19:56.314Z,7.70
2022-10-10T17:22:45.002Z,6.83
2022-10-10T17:25:34.832Z,7.13
2022-10-10T17:28:23.339Z,8.37
2022-10-10T17:31:15.074Z,8.77
2022-10-10T17:34:03.536Z,9.13
2022-10-10T17:36:52.821Z,6.80
2022-10-10T17:39:41.312Z,8.10
2022-10-10T17:42:31.610Z,7.77
2022-10-10T17:45:20.218Z,7.70
2022-10-10T17:48:09.361Z,8.40
2022-10-10T17:50:58.006Z,9.70
2022-10-10T17:53:46.489Z,9.20
2022-10-10T17:56:35.711Z,7.67
2022-10-10T17:59:25.626Z,6.87
2022-10-10T18:02:16.494Z,6.80
2022-10-10T18:05:05.374Z,8.60
2022-10-10T18:07:55.136Z,8.57
2022-10-10T18:10:43.663Z,9.03
2022-10-10T18:13:32.223Z,9.20
2022-10-10T18:16:23.461Z,14.93
2022-10-10T18:19:12.365Z,11.83
2022-10-10T18:22:00.936Z,10.70
2022-10-10T18:24:49.446Z,13.80
2022-10-10T18:27:38.070Z,10.20
2022-10-10T18:30:26.792Z,8.70
2022-10-10T18:33:16.650Z,8.10
2022-10-10T18:36:06.694Z,7.40
2022-10-10T18:38:55.632Z,7.90
2022-10-10T18:41:44.172Z,8.17
2022-10-10T18:44:32.682Z,7.57
2022-10-10T18:47:21.624Z,8.23
2022-10-10T18:50:11.621Z,8.03
2022-10-10T18:53:00.160Z,8.50
2022-10-10T18:55:55.718Z,9.30
2022-10-10T18:58:44.275Z,7.97
2022-10-10T19:01:36.357Z,10.27
2022-10-10T19:04:25.458Z,9.70
2022-10-10T19:07:15.750Z,9.67
2022-10-10T19:10:05.103Z,9.23
2022-10-10T19:12:54.018Z,9.60
2022-10-10T19:15:42.617Z,9.23
2022-10-10T19:18:31.111Z,10.40
2022-10-10T19:21:19.566Z,9.47
2022-10-10T19:24:10.552Z,10.30
2022-10-10T19:26:59.141Z,10.57
2022-10-10T19:29:47.611Z,10.67
2022-10-10T19:32:36.124Z,11.90
2022-10-10T19:35:26.840Z,10.67
2022-10-10T19:38:16.950Z,11.33
2022-10-10T19:41:08.158Z,11.40
2022-10-10T19:43:58.018Z,9.13
2022-10-10T19:46:46.521Z,8.90
2022-10-10T19:49:35.041Z,8.67
2022-10-10T19:52:23.527Z,8.50
2022-10-10T19:55:12.047Z,8.83
2022-10-10T19:58:01.998Z,9.40
2022-10-10T20:00:50.500Z,8.90
2022-10-10T20:03:39.058Z,8.00
2022-10-10T20:06:27.989Z,7.00
2022-10-10T20:09:16.446Z,6.90
2022-10-10T20:12:05.049Z,6.50
2022-10-10T20:14:54.867Z,6.27
2022-10-10T20:17:43.375Z,6.23
2022-10-10T20:20:31.893Z,6.37
2022-10-10T20:23:22.722Z,7.80
2022-10-10T20:26:12.744Z,6.03
2022-10-10T20:29:01.889Z,6.30
2022-10-10T20:31:51.777Z,8.47
2022-10-10T20:34:40.312Z,6.73
2022-10-10T20:37:28.744Z,6.07
2022-10-10T20:40:17.343Z,6.30
2022-10-10T20:43:05.825Z,6.13
2022-10-10T20:45:54.305Z,5.80
2022-10-10T20:48:44.151Z,4.87
2022-10-10T20:51:32.694Z,5.80
2022-10-10T20:54:23.131Z,5.60
2022-10-10T20:57:11.658Z,5.43
2022-10-10T21:00:00.129Z,5.20
2022-10-10T21:02:49.364Z,4.60
2022-10-10T21:05:39.193Z,5.50
2022-10-10T21:08:29.143Z,5.40
2022-10-10T21:11:18.470Z,5.23
2022-10-10T21:14:06.969Z,5.13
2022-10-10T21:16:55.433Z,4.73
2022-10-10T21:19:44.115Z,5.60
2022-10-10T21:22:33.900Z,4.97
2022-10-10T21:25:22.370Z,4.57
2022-10-10T21:28:11.044Z,4.33
2022-10-10T21:30:59.639Z,5.00
2022-10-10T21:33:48.871Z,4.60
2022-10-10T21:36:37.758Z,5.10
2022-10-10T21:39:27.815Z,5.10
2022-10-10T21:42:16.237Z,5.40
2022-10-10T21:45:05.252Z,6.77
2022-10-10T21:47:53.687Z,5.50
2022-10-10T21:50:42.241Z,6.00
2022-10-10T21:53:30.808Z,5.73
2022-10-10T21:56:20.611Z,4.93
2022-10-10T21:59:09.149Z,5.70
2022-10-10T22:01:57.549Z,4.60
2022-10-10T22:04:45.967Z,5.97
2022-10-10T22:07:34.499Z,5.03
2022-10-10T22:10:23.117Z,4.87
2022-10-10T22:13:12.889Z,4.97
2022-10-10T22:16:02.040Z,5.03
2022-10-10T22:18:54.247Z,6.20
2022-10-10T22:21:42.697Z,5.47
2022-10-10T22:24:31.147Z,6.00
2022-10-10T22:27:19.922Z,5.67
2022-10-10T22:30:12.029Z,5.50
2022-10-10T22:33:00.464Z,5.60
2022-10-10T22:35:48.918Z,5.07
2022-10-10T22:38:38.854Z,5.30
2022-10-10T22:41:27.341Z,4.60
2022-10-10T22:44:16.534Z,4.60
2022-10-10T22:47:06.352Z,5.40
2022-10-10T22:49:54.800Z,4.93
2022-10-10T22:52:43.325Z,5.03
2022-10-10T22:55:31.765Z,5.00
2022-10-10T22:58:20.209Z,6.43
2022-10-10T23:01:10.397Z,4.93
2022-10-10T23:04:03.399Z,4.90
2022-10-10T23:06:51.844Z,4.83
2022-10-10T23:09:40.313Z,4.70
2022-10-10T23:12:28.859Z,4.80
2022-10-10T23:15:17.340Z,5.07
2022-10-10T23:18:05.915Z,5.27
2022-10-10T23:20:55.703Z,5.20
2022-10-10T23:23:44.147Z,5.17
2022-10-10T23:26:32.633Z,5.20
2022-10-10T23:29:21.057Z,5.23
2022-10-10T23:32:09.480Z,5.87
2022-10-10T23:34:57.939Z,4.67
2022-10-10T23:37:48.468Z,6.00
2022-10-10T23:40:36.884Z,4.93
2022-10-10T23:43:25.379Z,5.87
2022-10-10T23:46:14.311Z,4.97
2022-10-10T23:49:02.760Z,4.87
2022-10-10T23:51:51.174Z,4.90
2022-10-10T23:54:40.935Z,5.13
2022-10-10T23:57:29.369Z,4.90
